Time;durP1;ratioP1;P1;durP2;ratioP2;P2;SDS_P1;SDS_P2;PMS_P1;PMS_P2;Temp;Humidity;BMP_temperature;BMP_pressure;BME280_temperature;BME280_humidity;BME280_pressure;Samples;Min_cycle;Max_cycle;Signal;HPM_P1;HPM_P2
2023/01/19 00:00:33;;;;;;;12.32;6.30;;;;;;;-1.82;100.00;99081.03;6304023;28;20520;-89
2023/01/19 00:03:35;;;;;;;11.65;6.28;;;;;;;-1.88;100.00;99079.63;6310345;28;20090;-89
2023/01/19 00:06:38;;;;;;;16.75;7.40;;;;;;;-1.85;100.00;99089.59;6313900;28;20123;-90
2023/01/19 00:09:39;;;;;;;11.60;6.50;;;;;;;-1.88;100.00;99086.44;6306185;28;20044;-89
2023/01/19 00:12:41;;;;;;;12.88;6.85;;;;;;;-1.92;100.00;99087.47;6313504;28;20044;-89
2023/01/19 00:15:43;;;;;;;11.25;6.32;;;;;;;-1.95;100.00;99080.84;6302537;28;20128;-89
2023/01/19 00:18:45;;;;;;;12.18;6.47;;;;;;;-2.01;100.00;99084.50;6288460;28;20041;-89
2023/01/19 00:21:46;;;;;;;10.93;5.90;;;;;;;-2.03;100.00;99077.88;6299125;28;20036;-89
2023/01/19 00:24:49;;;;;;;12.32;6.68;;;;;;;-2.05;100.00;99084.75;6301297;28;20126;-89
2023/01/19 00:27:50;;;;;;;12.75;6.32;;;;;;;-2.03;100.00;99085.50;6306377;28;20036;-89
2023/01/19 00:30:52;;;;;;;9.82;5.60;;;;;;;-2.02;100.00;99090.47;6292334;28;20044;-89
2023/01/19 00:33:54;;;;;;;9.48;5.95;;;;;;;-1.98;100.00;99091.94;6310800;28;20044;-90
2023/01/19 00:36:55;;;;;;;12.63;6.25;;;;;;;-1.97;100.00;99097.84;6303687;28;20398;-89
2023/01/19 00:39:57;;;;;;;12.57;6.28;;;;;;;-1.93;100.00;99099.34;6299927;28;20059;-89
2023/01/19 00:42:59;;;;;;;9.10;5.47;;;;;;;-1.96;100.00;99097.78;6301302;28;20048;-89
2023/01/19 00:46:01;;;;;;;12.00;6.63;;;;;;;-1.99;100.00;99100.47;6296508;28;20057;-89
2023/01/19 00:49:04;;;;;;;12.48;6.18;;;;;;;-1.95;100.00;99101.13;6294508;28;20453;-89
2023/01/19 00:52:06;;;;;;;11.73;6.22;;;;;;;-1.95;100.00;99093.50;6304757;28;20500;-89
2023/01/19 00:55:10;;;;;;;12.63;6.45;;;;;;;-1.96;100.00;99089.34;6311204;28;20048;-90
2023/01/19 00:58:12;;;;;;;11.27;6.70;;;;;;;-2.01;100.00;99091.31;6310325;28;20521;-89
2023/01/19 01:01:13;;;;;;;8.73;5.63;;;;;;;-1.99;100.00;99092.88;6309449;28;20064;-89
2023/01/19 01:04:15;;;;;;;12.32;6.35;;;;;;;-1.88;100.00;99086.44;6311943;28;20058;-90
2023/01/19 01:07:17;;;;;;;10.45;6.25;;;;;;;-1.82;100.00;99081.03;6309434;28;20051;-89
2023/01/19 01:10:22;;;;;;;12.63;6.25;;;;;;;-1.70;100.00;99079.59;6309842;28;20036;-89
2023/01/19 01:13:24;;;;;;;9.88;5.95;;;;;;;-1.73;100.00;99078.03;6296717;28;20049;-90
2023/01/19 01:16:28;;;;;;;9.85;5.97;;;;;;;-1.73;100.00;99078.84;6300778;28;20308;-89
2023/01/19 01:19:30;;;;;;;14.50;6.95;;;;;;;-1.81;100.00;99080.97;6312660;28;20040;-89
2023/01/19 01:22:32;;;;;;;12.32;6.50;;;;;;;-1.74;100.00;99087.34;6308834;28;20168;-90
2023/01/19 01:25:36;;;;;;;11.70;6.15;;;;;;;-1.73;100.00;99086.44;6291746;28;20048;-89
2023/01/19 01:28:38;;;;;;;8.68;5.50;;;;;;;-1.74;100.00;99089.91;6308795;28;20044;-89
2023/01/19 01:31:39;;;;;;;10.23;5.60;;;;;;;-1.79;100.00;99093.53;6308026;28;20414;-90
2023/01/19 01:34:41;;;;;;;9.98;5.55;;;;;;;-1.85;100.00;99097.22;6300565;28;20089;-90
2023/01/19 01:37:44;;;;;;;10.18;6.00;;;;;;;-1.87;100.00;99098.19;6309236;28;20036;-89
2023/01/19 01:40:46;;;;;;;8.88;5.32;;;;;;;-1.91;100.00;99101.78;6312688;28;20216;-89
2023/01/19 01:43:56;;;;;;;9.60;5.90;;;;;;;-1.87;100.00;99108.34;6299407;28;20499;-89
2023/01/19 01:46:59;;;;;;;11.60;5.93;;;;;;;-1.91;100.00;99102.63;6309153;28;20506;-89
2023/01/19 01:50:22;;;;;;;10.32;5.82;;;;;;;-1.97;100.00;99092.78;6308896;28;21092;-89
2023/01/19 01:53:24;;;;;;;9.75;6.15;;;;;;;-1.98;100.00;99083.53;6310100;28;20509;-89
2023/01/19 01:56:41;;;;;;;9.07;5.43;;;;;;;-1.97;100.00;99070.75;6309605;28;20048;-89
2023/01/19 01:59:47;;;;;;;8.43;5.43;;;;;;;-1.98;100.00;99071.66;6307289;28;20044;-89
2023/01/19 02:02:49;;;;;;;12.38;6.10;;;;;;;-2.01;100.00;99066.75;6300350;28;20453;-89
2023/01/19 02:05:56;;;;;;;11.32;6.70;;;;;;;-1.97;100.00;99073.28;6309013;28;20052;-89
2023/01/19 02:16:01;;;;;;;10.10;5.72;;;;;;;-1.93;100.00;99073.97;6323167;28;20224;-89
2023/01/19 02:19:06;;;;;;;12.23;5.97;;;;;;;-1.93;100.00;99080.78;6298428;28;20137;-89
2023/01/19 02:22:19;;;;;;;10.32;5.82;;;;;;;-1.92;100.00;99073.06;6303867;28;20042;-88
2023/01/19 02:25:21;;;;;;;7.85;5.40;;;;;;;-1.75;100.00;99072.22;6310571;28;20410;-89
2023/01/19 02:28:25;;;;;;;9.80;5.68;;;;;;;-1.79;100.00;99068.19;6306703;28;20048;-89
2023/01/19 02:31:29;;;;;;;9.23;5.90;;;;;;;-1.80;100.00;99064.81;6301558;28;20067;-89
2023/01/19 02:34:31;;;;;;;10.82;6.22;;;;;;;-1.84;100.00;99062.53;6308610;28;20047;-89
2023/01/19 02:37:38;;;;;;;11.70;6.43;;;;;;;-1.84;100.00;99068.44;6303834;28;20685;-89
2023/01/19 02:40:43;;;;;;;9.85;6.05;;;;;;;-1.87;100.00;99063.50;6298255;28;20137;-89
2023/01/19 02:43:48;;;;;;;11.52;6.53;;;;;;;-1.92;100.00;99067.19;6296342;28;20047;-89
2023/01/19 02:46:53;;;;;;;13.15;6.80;;;;;;;-1.88;100.00;99053.47;6296607;28;20044;-89
2023/01/19 02:49:59;;;;;;;11.90;6.18;;;;;;;-1.91;100.00;99061.19;6309811;28;20040;-89
2023/01/19 02:53:15;;;;;;;8.57;5.75;;;;;;;-1.79;100.00;99058.88;6308306;28;20060;-89
2023/01/19 02:56:48;;;;;;;10.75;6.00;;;;;;;-1.80;100.00;99061.47;6308127;28;20401;-89
2023/01/19 03:00:25;;;;;;;11.13;6.38;;;;;;;-1.68;100.00;99067.66;6310589;28;20047;-89
2023/01/19 03:03:39;;;;;;;11.30;5.75;;;;;;;-1.63;100.00;99084.25;6308688;28;20044;-88
2023/01/19 03:07:07;;;;;;;11.50;6.32;;;;;;;-1.49;100.00;99087.78;6309782;28;20117;-89
2023/01/19 03:10:19;;;;;;;9.88;5.78;;;;;;;-1.44;100.00;99075.66;6306569;28;20569;-89
2023/01/19 03:13:38;;;;;;;8.93;5.63;;;;;;;-1.53;100.00;99067.66;6311308;28;20498;-89
2023/01/19 03:16:53;;;;;;;10.30;5.78;;;;;;;-1.62;100.00;99073.19;6311862;28;20051;-89
2023/01/19 03:19:56;;;;;;;11.48;6.13;;;;;;;-1.64;100.00;99075.00;6309177;28;20047;-89
2023/01/19 03:23:02;;;;;;;12.45;5.75;;;;;;;-1.44;100.00;99080.75;6311259;28;20454;-89
2023/01/19 03:26:09;;;;;;;10.63;6.35;;;;;;;-1.49;100.00;99075.94;6283783;28;20040;-89
2023/01/19 03:29:13;;;;;;;7.78;4.93;;;;;;;-1.58;100.00;99074.69;6280581;28;20461;-89
2023/01/19 03:32:18;;;;;;;11.95;5.90;;;;;;;-1.59;100.00;99070.53;6290007;28;20032;-89
2023/01/19 03:35:24;;;;;;;11.52;5.82;;;;;;;-1.57;100.00;99060.28;6288396;28;20064;-89
2023/01/19 03:38:27;;;;;;;8.88;5.65;;;;;;;-1.56;100.00;99055.13;6297741;28;20495;-89
2023/01/19 03:41:31;;;;;;;9.32;5.68;;;;;;;-1.61;100.00;99064.69;6300546;28;20091;-89
2023/01/19 03:44:36;;;;;;;9.27;5.60;;;;;;;-1.62;100.00;99065.59;6304382;28;20541;-89
2023/01/19 03:47:39;;;;;;;12.73;6.13;;;;;;;-1.58;100.00;99071.34;6303403;28;20154;-89
2023/01/19 03:50:42;;;;;;;10.70;6.60;;;;;;;-1.49;100.00;99060.72;6305078;28;20040;-89
2023/01/19 03:53:44;;;;;;;12.48;6.20;;;;;;;-1.46;100.00;99052.13;6304768;28;20044;-89
2023/01/19 03:56:46;;;;;;;12.30;6.28;;;;;;;-1.48;100.00;99049.66;6311193;28;20072;-89
2023/01/19 03:59:48;;;;;;;11.63;5.95;;;;;;;-1.46;100.00;99047.03;6309863;28;20061;-88
2023/01/19 04:02:49;;;;;;;10.77;6.22;;;;;;;-1.40;100.00;99051.78;6309290;28;20563;-89
2023/01/19 04:05:51;;;;;;;11.70;6.25;;;;;;;-1.46;100.00;99050.38;6310560;28;20047;-89
2023/01/19 04:08:54;;;;;;;10.05;5.97;;;;;;;-1.47;100.00;99055.53;6300124;28;20044;-89
2023/01/19 04:11:56;;;;;;;11.98;6.22;;;;;;;-1.48;100.00;99053.91;6299822;28;20047;-88
2023/01/19 04:14:58;;;;;;;11.30;5.93;;;;;;;-1.41;100.00;99052.69;6293812;28;21053;-89
2023/01/19 04:18:00;;;;;;;11.90;6.18;;;;;;;-1.42;100.00;99051.03;6306727;28;20496;-89
2023/01/19 04:21:03;;;;;;;12.45;6.32;;;;;;;-1.32;100.00;99055.56;6309053;28;20494;-89
2023/01/19 04:24:06;;;;;;;9.10;5.75;;;;;;;-1.25;100.00;99056.00;6308015;28;20444;-89
2023/01/19 04:27:07;;;;;;;12.90;6.57;;;;;;;-1.25;100.00;99060.28;6306921;28;20043;-89
2023/01/19 04:30:10;;;;;;;9.32;5.65;;;;;;;-1.22;100.00;99060.91;6306184;28;20033;-89
2023/01/19 04:33:11;;;;;;;10.07;5.65;;;;;;;-1.23;100.00;99055.94;6300863;28;20048;-89
2023/01/19 04:36:13;;;;;;;10.52;6.38;;;;;;;-1.22;100.00;99058.38;6307232;28;20036;-89
2023/01/19 04:39:15;;;;;;;9.32;5.90;;;;;;;-1.09;100.00;99056.84;6285788;28;20508;-89
2023/01/19 04:42:17;;;;;;;10.63;6.00;;;;;;;-0.97;100.00;99049.44;6310192;28;20036;-89
2023/01/19 04:45:19;;;;;;;11.73;6.22;;;;;;;-0.90;100.00;99051.53;6303293;28;20061;-89
2023/01/19 04:48:21;;;;;;;12.52;6.30;;;;;;;-0.88;100.00;99048.94;6309733;28;20484;-89
2023/01/19 04:51:22;;;;;;;9.98;6.13;;;;;;;-0.79;100.00;99038.25;6310122;28;20040;-89
2023/01/19 04:54:26;;;;;;;8.38;5.63;;;;;;;-0.86;100.00;99039.50;6306444;28;20170;-89
2023/01/19 04:57:29;;;;;;;11.77;6.50;;;;;;;-0.80;100.00;99043.41;6313566;28;20044;-89
2023/01/19 05:00:30;;;;;;;10.35;5.57;;;;;;;-0.91;100.00;99039.75;6313893;28;20040;-89
2023/01/19 05:03:32;;;;;;;12.07;6.28;;;;;;;-0.78;100.00;99044.97;6312909;28;20565;-89
2023/01/19 05:06:34;;;;;;;10.15;5.85;;;;;;;-0.58;100.00;99045.56;6312670;28;20401;-89
2023/01/19 05:09:36;;;;;;;11.30;6.05;;;;;;;-0.54;100.00;99041.94;6313270;28;20040;-89
2023/01/19 05:12:37;;;;;;;10.13;6.40;;;;;;;-0.50;100.00;99033.22;6308353;28;20055;-89
2023/01/19 05:15:39;;;;;;;9.20;6.07;;;;;;;-0.46;100.00;99034.69;6311887;28;20434;-89
2023/01/19 05:18:41;;;;;;;11.73;5.70;;;;;;;-0.57;100.00;99039.56;6310444;28;20044;-89
2023/01/19 05:21:42;;;;;;;12.15;5.85;;;;;;;-0.63;100.00;99045.81;6305505;28;20059;-89
2023/01/19 05:24:44;;;;;;;13.38;6.25;;;;;;;-0.61;100.00;99050.81;6312230;28;20627;-89
2023/01/19 05:27:46;;;;;;;10.82;5.95;;;;;;;-0.64;100.00;99048.47;6307370;28;20048;-89
2023/01/19 05:30:48;;;;;;;11.38;6.28;;;;;;;-0.53;100.00;99053.75;6313459;28;20044;-89
2023/01/19 05:33:51;;;;;;;9.32;5.40;;;;;;;-0.42;100.00;99059.03;6309087;28;20036;-89
2023/01/19 05:36:52;;;;;;;8.32;5.80;;;;;;;-0.35;100.00;99062.03;6323696;28;20549;-89
2023/01/19 05:39:54;;;;;;;15.50;5.82;;;;;;;-0.31;100.00;99058.41;6299581;28;20047;-89
2023/01/19 05:42:59;;;;;;;10.32;5.88;;;;;;;-0.30;100.00;99071.06;6310439;28;20044;-89
2023/01/19 05:46:08;;;;;;;11.13;5.70;;;;;;;-0.25;100.00;99073.31;6313507;28;20840;-89
2023/01/19 05:49:11;;;;;;;7.35;5.07;;;;;;;-0.20;100.00;99075.59;6326276;28;20048;-89
2023/01/19 05:52:13;;;;;;;10.25;5.28;;;;;;;-0.18;100.00;99074.59;6312018;28;20101;-89
2023/01/19 05:55:15;;;;;;;7.35;4.90;;;;;;;-0.11;100.00;99090.31;6308993;28;20059;-89
2023/01/19 05:58:20;;;;;;;11.65;5.80;;;;;;;-0.01;100.00;99087.13;6310170;28;20492;-89
2023/01/19 06:01:22;;;;;;;8.65;5.03;;;;;;;0.01;100.00;99089.59;6312197;28;20391;-89
2023/01/19 06:04:24;;;;;;;10.13;6.15;;;;;;;-0.01;100.00;99078.69;6276826;28;20639;-89
2023/01/19 06:07:26;;;;;;;9.23;5.18;;;;;;;-0.04;100.00;99072.06;6311630;28;20040;-89
2023/01/19 06:10:29;;;;;;;9.05;5.82;;;;;;;-0.05;100.00;99084.84;6312652;28;20044;-89
2023/01/19 06:13:32;;;;;;;9.18;5.60;;;;;;;-0.08;100.00;99085.03;6313248;28;20056;-89
2023/01/19 06:16:34;;;;;;;11.52;5.85;;;;;;;-0.11;100.00;99086.03;6311282;28;20047;-89
2023/01/19 06:19:36;;;;;;;10.95;5.65;;;;;;;-0.09;100.00;99096.94;6311118;28;20048;-89
2023/01/19 06:22:38;;;;;;;7.82;4.95;;;;;;;-0.07;100.00;99086.69;6310479;28;20217;-90
2023/01/19 06:25:40;;;;;;;8.98;5.15;;;;;;;-0.09;100.00;99096.13;6312081;28;20513;-89
2023/01/19 06:28:42;;;;;;;9.80;5.07;;;;;;;-0.16;100.00;99085.50;6301037;28;20067;-89
2023/01/19 06:31:44;;;;;;;9.68;5.47;;;;;;;-0.26;100.00;99089.47;6310789;28;20047;-90
2023/01/19 06:34:46;;;;;;;8.90;5.40;;;;;;;-0.24;100.00;99092.75;6311777;28;20142;-90
2023/01/19 06:37:47;;;;;;;7.68;5.00;;;;;;;-0.24;100.00;99091.03;6308546;28;20445;-90
2023/01/19 06:40:57;;;;;;;10.55;6.00;;;;;;;-0.25;100.00;99096.19;6308034;28;20036;-90
2023/01/19 06:43:59;;;;;;;7.93;5.13;;;;;;;-0.25;100.00;99099.56;6310194;28;20063;-89
2023/01/19 06:47:01;;;;;;;8.93;5.38;;;;;;;-0.14;100.00;99106.56;6293469;28;20485;-89
2023/01/19 06:50:16;;;;;;;8.45;5.78;;;;;;;-0.06;100.00;99103.59;6310438;28;20040;-89
2023/01/19 06:53:21;;;;;;;8.43;4.88;;;;;;;0.04;100.00;99103.88;6305209;28;20038;-90
2023/01/19 06:56:22;;;;;;;8.23;5.45;;;;;;;0.07;100.00;99104.50;6312465;28;20040;-89
2023/01/19 06:59:24;;;;;;;10.52;5.20;;;;;;;0.11;100.00;99103.41;6310160;28;20040;-89
2023/01/19 07:02:26;;;;;;;9.43;5.35;;;;;;;0.11;100.00;99105.97;6308199;28;20044;-89
2023/01/19 07:05:29;;;;;;;11.38;6.22;;;;;;;0.17;100.00;99109.84;6294350;28;20397;-89
2023/01/19 07:08:35;;;;;;;8.57;5.30;;;;;;;0.21;100.00;99107.03;6298445;28;20035;-89
2023/01/19 07:11:36;;;;;;;8.00;5.07;;;;;;;0.24;100.00;99111.13;6301351;28;20044;-89
2023/01/19 07:14:38;;;;;;;7.85;5.30;;;;;;;0.25;100.00;99115.34;6299795;28;20059;-89
2023/01/19 07:17:41;;;;;;;8.88;5.00;;;;;;;0.26;100.00;99124.59;6295144;28;20479;-89
2023/01/19 07:20:44;;;;;;;8.13;4.82;;;;;;;0.25;100.00;99140.78;6299517;28;20036;-89
2023/01/19 07:23:52;;;;;;;7.75;4.88;;;;;;;0.33;100.00;99132.69;6301365;28;20048;-89
2023/01/19 07:26:53;;;;;;;6.80;4.60;;;;;;;0.37;100.00;99131.56;6303756;28;20125;-82
2023/01/19 07:29:55;;;;;;;9.15;4.68;;;;;;;0.38;100.00;99130.69;6307220;28;20100;-88
2023/01/19 07:32:57;;;;;;;8.13;4.78;;;;;;;0.41;100.00;99133.03;6304118;28;20074;-87
2023/01/19 07:35:59;;;;;;;9.50;5.18;;;;;;;0.42;100.00;99140.59;6309699;28;20036;-87
2023/01/19 07:39:01;;;;;;;7.85;4.97;;;;;;;0.53;100.00;99132.31;6309541;28;20123;-87
2023/01/19 07:42:03;;;;;;;9.27;4.90;;;;;;;0.48;100.00;99141.97;6310744;28;20040;-86
2023/01/19 07:45:06;;;;;;;6.95;4.72;;;;;;;0.46;100.00;99145.50;6305478;28;20568;-87
2023/01/19 07:48:08;;;;;;;7.78;4.93;;;;;;;0.49;100.00;99141.03;6305976;28;20493;-87
2023/01/19 07:51:17;;;;;;;8.88;4.85;;;;;;;0.48;100.00;99144.50;6303786;28;20036;-86
2023/01/19 07:54:19;;;;;;;6.72;4.68;;;;;;;0.52;100.00;99152.75;6300586;28;20044;-86
2023/01/19 07:57:21;;;;;;;7.30;4.90;;;;;;;0.57;100.00;99158.41;6308973;28;20028;-86
2023/01/19 08:00:24;;;;;;;6.40;4.70;;;;;;;0.60;100.00;99165.88;6302059;28;20471;-86
2023/01/19 08:03:26;;;;;;;7.78;4.45;;;;;;;0.57;100.00;99166.88;6301599;28;20044;-86
2023/01/19 08:06:38;;;;;;;8.48;4.35;;;;;;;0.55;100.00;99162.78;6305840;28;20048;-87
2023/01/19 08:09:41;;;;;;;10.80;5.50;;;;;;;0.54;100.00;99178.94;6309679;28;20116;-87
2023/01/19 08:12:43;;;;;;;7.30;4.75;;;;;;;0.60;100.00;99179.41;6303640;28;20059;-86
2023/01/19 08:15:51;;;;;;;7.18;4.45;;;;;;;0.63;100.00;99173.31;6287266;28;20052;-87
2023/01/19 08:18:54;;;;;;;7.38;4.82;;;;;;;0.70;100.00;99161.03;6304351;28;20043;-87
2023/01/19 08:21:57;;;;;;;7.10;4.82;;;;;;;0.68;100.00;99166.22;6303132;28;20044;-87
2023/01/19 08:24:59;;;;;;;7.60;4.70;;;;;;;0.73;100.00;99164.22;6307587;28;20051;-87
2023/01/19 08:28:04;;;;;;;8.15;4.82;;;;;;;0.78;100.00;99161.41;6307701;28;20035;-87
2023/01/19 08:31:05;;;;;;;7.68;5.38;;;;;;;0.78;100.00;99174.13;6315650;28;20047;-87
2023/01/19 08:34:20;;;;;;;9.00;4.20;;;;;;;0.76;100.00;99173.41;6310387;28;20503;-88
2023/01/19 08:37:23;;;;;;;7.65;5.30;;;;;;;0.80;100.00;99170.56;6311357;28;20035;-87
2023/01/19 08:40:27;;;;;;;7.25;4.70;;;;;;;0.88;100.00;99180.28;6310543;28;20032;-88
2023/01/19 08:43:29;;;;;;;9.55;4.70;;;;;;;0.93;100.00;99180.84;6310839;28;20432;-87
2023/01/19 08:46:31;;;;;;;6.57;4.40;;;;;;;0.99;100.00;99185.53;6310145;28;20051;-82
2023/01/19 08:49:32;;;;;;;8.82;4.82;;;;;;;1.04;100.00;99183.56;6304774;28;20040;-87
2023/01/19 08:52:34;;;;;;;12.45;5.53;;;;;;;1.02;100.00;99192.22;6310559;28;20458;-87
2023/01/19 08:55:36;;;;;;;8.23;5.30;;;;;;;1.00;100.00;99197.38;6304678;28;20055;-87
2023/01/19 08:58:40;;;;;;;6.65;4.78;;;;;;;1.06;100.00;99207.19;6313119;28;20114;-87
2023/01/19 09:01:43;;;;;;;6.15;4.60;;;;;;;1.07;100.00;99208.03;6301676;28;20063;-87
2023/01/19 09:04:46;;;;;;;7.93;5.32;;;;;;;1.10;100.00;99205.28;6301816;28;20052;-88
2023/01/19 09:07:50;;;;;;;9.07;5.05;;;;;;;1.12;100.00;99205.19;6310375;28;20051;-88
2023/01/19 09:10:52;;;;;;;8.88;6.07;;;;;;;1.13;100.00;99215.28;6305491;28;20043;-88
2023/01/19 09:13:54;;;;;;;6.82;5.53;;;;;;;1.12;100.00;99211.13;6314126;28;20036;-88
2023/01/19 09:16:56;;;;;;;10.60;5.93;;;;;;;1.12;100.00;99215.38;6307152;28;20055;-88
2023/01/19 09:19:58;;;;;;;10.20;5.63;;;;;;;1.11;100.00;99221.38;6293406;28;20040;-88
2023/01/19 09:22:59;;;;;;;8.10;5.75;;;;;;;1.19;100.00;99219.19;6312286;28;20028;-88
2023/01/19 09:26:03;;;;;;;9.15;5.63;;;;;;;1.42;100.00;99228.78;6309215;28;20040;-88
2023/01/19 09:29:06;;;;;;;9.57;5.25;;;;;;;1.49;100.00;99235.16;6310278;28;20047;-88
2023/01/19 09:32:09;;;;;;;8.95;5.72;;;;;;;1.44;100.00;99233.78;6304995;28;20046;-89
2023/01/19 09:35:13;;;;;;;9.55;5.45;;;;;;;1.36;100.00;99239.34;6312836;28;20043;-88
2023/01/19 09:38:15;;;;;;;8.43;5.72;;;;;;;1.32;100.00;99237.09;6310314;28;20480;-88
2023/01/19 09:41:21;;;;;;;6.93;5.03;;;;;;;1.31;100.00;99236.28;6310256;28;20131;-88
2023/01/19 09:44:34;;;;;;;7.95;5.18;;;;;;;1.40;100.00;99237.44;6289611;28;20052;-88
2023/01/19 09:47:38;;;;;;;7.45;5.03;;;;;;;1.43;100.00;99240.63;6315578;28;20520;-88
2023/01/19 09:50:45;;;;;;;7.38;5.15;;;;;;;1.43;100.00;99247.47;6313843;28;20032;-88
2023/01/19 09:54:01;;;;;;;8.77;5.20;;;;;;;1.32;100.00;99248.13;6310621;28;20043;-88
2023/01/19 09:57:10;;;;;;;6.95;4.63;;;;;;;1.27;100.00;99247.59;6313542;28;20489;-88
2023/01/19 10:00:23;;;;;;;9.15;5.10;;;;;;;1.32;100.00;99260.88;6312794;28;20437;-88
2023/01/19 10:03:25;;;;;;;6.50;4.45;;;;;;;1.24;100.00;99261.34;6308668;28;20036;-88
2023/01/19 10:06:29;;;;;;;5.45;4.57;;;;;;;1.19;100.00;99273.53;6307630;28;20566;-87
2023/01/19 10:09:46;;;;;;;4.22;3.75;;;;;;;1.27;100.00;99273.88;6307818;28;20114;-87
2023/01/19 10:13:22;;;;;;;8.55;4.35;;;;;;;1.23;100.00;99277.53;6302963;28;20040;-87
2023/01/19 10:16:30;;;;;;;6.80;3.85;;;;;;;1.17;100.00;99277.06;6310528;28;20520;-87
2023/01/19 10:19:36;;;;;;;6.15;4.47;;;;;;;1.14;100.00;99278.06;6309251;28;20490;-87
2023/01/19 10:22:48;;;;;;;6.50;4.10;;;;;;;1.11;100.00;99280.81;6291248;28;20048;-87
2023/01/19 10:25:50;;;;;;;6.30;4.65;;;;;;;1.05;100.00;99284.56;6302919;28;20127;-87
2023/01/19 10:29:18;;;;;;;5.05;3.88;;;;;;;1.02;100.00;99283.94;6306226;28;20370;-87
2023/01/19 10:32:26;;;;;;;4.88;4.22;;;;;;;1.27;100.00;99280.72;6310878;28;20571;-87
2023/01/19 10:35:28;;;;;;;6.97;3.97;;;;;;;1.52;100.00;99285.16;6310818;28;20564;-87
2023/01/19 10:38:32;;;;;;;5.75;4.15;;;;;;;1.66;100.00;99274.88;6308073;28;20501;-88
2023/01/19 10:41:52;;;;;;;7.53;4.65;;;;;;;1.75;100.00;99278.59;6309798;28;20043;-87
2023/01/19 10:44:54;;;;;;;5.68;4.25;;;;;;;1.80;100.00;99278.31;6305305;28;20068;-88
2023/01/19 10:48:06;;;;;;;6.15;4.10;;;;;;;1.82;100.00;99269.66;6290179;28;20050;-88
2023/01/19 10:51:09;;;;;;;5.85;3.55;;;;;;;1.88;100.00;99279.47;6311878;28;20528;-88
2023/01/19 10:54:12;;;;;;;4.40;3.42;;;;;;;1.93;100.00;99277.44;6311006;28;20040;-88
2023/01/19 10:57:30;;;;;;;3.35;2.80;;;;;;;1.97;100.00;99282.38;6310330;28;20039;-88
2023/01/19 11:00:40;;;;;;;3.45;3.15;;;;;;;1.93;100.00;99289.38;6309276;28;20044;-88
2023/01/19 11:03:42;;;;;;;3.95;2.65;;;;;;;1.83;100.00;99280.69;6312138;28;20063;-88
2023/01/19 11:06:44;;;;;;;4.10;3.47;;;;;;;1.91;100.00;99286.09;6310934;28;20079;-88
2023/01/19 11:09:47;;;;;;;3.85;2.90;;;;;;;1.90;100.00;99285.28;6306607;28;20043;-88
2023/01/19 11:13:03;;;;;;;3.00;2.70;;;;;;;1.82;100.00;99284.16;6307127;28;20039;-88
2023/01/19 11:16:14;;;;;;;3.08;2.78;;;;;;;1.73;100.00;99282.97;6309150;28;20040;-88
2023/01/19 11:19:26;;;;;;;3.45;3.10;;;;;;;1.76;100.00;99295.53;6310524;28;20079;-88
2023/01/19 11:22:32;;;;;;;3.58;2.80;;;;;;;1.79;100.00;99287.72;6308384;28;20048;-88
2023/01/19 11:25:35;;;;;;;3.35;2.83;;;;;;;1.83;100.00;99289.13;6311045;28;20432;-88
2023/01/19 11:28:41;;;;;;;4.03;3.40;;;;;;;1.86;100.00;99288.97;6310364;28;20051;-89
2023/01/19 11:31:45;;;;;;;3.05;2.75;;;;;;;1.84;100.00;99289.94;6300519;28;20040;-88
2023/01/19 11:34:48;;;;;;;2.58;2.38;;;;;;;1.93;100.00;99290.19;6303562;28;20055;-89
2023/01/19 11:38:04;;;;;;;4.22;2.47;;;;;;;1.99;100.00;99283.91;6306459;28;20040;-89
2023/01/19 11:41:17;;;;;;;4.05;2.80;;;;;;;2.02;100.00;99288.00;6310601;28;20486;-89
2023/01/19 11:44:30;;;;;;;3.10;2.72;;;;;;;2.11;100.00;99284.84;6311756;28;20044;-89
2023/01/19 11:47:42;;;;;;;2.90;2.55;;;;;;;2.05;100.00;99288.59;6307319;28;20043;-88
2023/01/19 11:50:45;;;;;;;3.97;3.45;;;;;;;1.97;100.00;99288.28;6301908;28;20040;-89
2023/01/19 11:53:51;;;;;;;3.92;3.35;;;;;;;1.75;100.00;99299.00;6309925;28;20058;-92
2023/01/19 11:56:57;;;;;;;3.83;3.17;;;;;;;1.46;100.00;99296.50;6309256;28;20036;-92
2023/01/19 12:00:04;;;;;;;4.35;3.58;;;;;;;1.01;100.00;99308.56;6308542;28;20032;-91
2023/01/19 12:03:19;;;;;;;3.75;3.28;;;;;;;0.81;100.00;99314.84;6305714;28;20541;-88
2023/01/19 12:06:29;;;;;;;4.63;3.25;;;;;;;0.63;100.00;99321.00;6302792;28;20049;-86
2023/01/19 12:09:41;;;;;;;4.40;3.30;;;;;;;0.60;100.00;99327.09;6308588;28;20549;-85
2023/01/19 12:12:43;;;;;;;3.97;3.22;;;;;;;0.61;100.00;99327.91;6303509;28;20051;-84
2023/01/19 12:15:47;;;;;;;6.13;3.38;;;;;;;0.54;100.00;99329.97;6311695;28;20051;-85
2023/01/19 12:19:14;;;;;;;4.40;3.00;;;;;;;0.46;100.00;99329.59;6311952;28;20048;-85
2023/01/19 12:22:19;;;;;;;5.00;3.00;;;;;;;0.45;100.00;99332.22;6304159;28;20093;-84
2023/01/19 12:25:28;;;;;;;2.67;2.38;;;;;;;0.35;100.00;99335.31;6303111;28;20047;-84
2023/01/19 12:28:35;;;;;;;2.72;2.40;;;;;;;0.29;100.00;99332.28;6309405;28;20040;-84
2023/01/19 12:31:39;;;;;;;2.58;1.83;;;;;;;0.33;100.00;99343.94;6309633;28;20528;-84
2023/01/19 12:34:54;;;;;;;2.08;1.60;;;;;;;0.31;100.00;99345.72;6308379;28;20047;-84
2023/01/19 12:37:56;;;;;;;1.67;1.30;;;;;;;0.34;100.00;99354.00;6311165;28;20036;-84
2023/01/19 12:41:18;;;;;;;1.67;1.20;;;;;;;0.47;100.00;99359.22;6307650;28;20036;-85
2023/01/19 12:44:23;;;;;;;4.78;1.50;;;;;;;0.66;100.00;99355.66;6306955;28;20036;-84
2023/01/19 12:47:26;;;;;;;2.83;1.70;;;;;;;0.77;100.00;99359.25;6308055;28;20032;-84
2023/01/19 12:50:39;;;;;;;2.70;1.73;;;;;;;0.87;100.00;99364.63;6309017;28;20084;-84
2023/01/19 12:53:53;;;;;;;3.15;1.70;;;;;;;0.87;100.00;99359.53;6309127;28;20070;-84
2023/01/19 12:57:15;;;;;;;5.18;2.42;;;;;;;0.87;100.00;99367.16;6296320;28;20513;-84
2023/01/19 13:00:23;;;;;;;4.53;2.30;;;;;;;0.94;100.00;99365.88;6303328;28;20139;-84
2023/01/19 13:03:25;;;;;;;2.85;2.17;;;;;;;1.05;100.00;99375.47;6307769;28;20040;-84
2023/01/19 13:07:04;;;;;;;6.00;2.22;;;;;;;1.12;100.00;99375.91;6309262;28;20556;-84
2023/01/19 13:10:43;;;;;;;5.97;2.53;;;;;;;1.19;100.00;99388.22;6224603;28;20129;-83
2023/01/19 13:13:57;;;;;;;6.30;2.92;;;;;;;1.26;100.00;99398.88;6224239;28;20657;-84
2023/01/19 13:17:02;;;;;;;9.02;3.13;;;;;;;1.31;100.00;99398.59;6210511;28;20069;-84
2023/01/19 13:20:21;;;;;;;6.30;3.40;;;;;;;1.30;100.00;99397.78;6212445;28;20144;-84
2023/01/19 13:23:26;;;;;;;7.25;3.13;;;;;;;1.38;100.00;99397.34;6224532;28;20050;-84
2023/01/19 13:26:31;;;;;;;8.23;3.63;;;;;;;1.48;100.00;99409.44;6226995;28;20076;-84
2023/01/19 13:29:36;;;;;;;9.25;4.35;;;;;;;1.53;100.00;99406.63;6208099;28;20524;-85
2023/01/19 13:32:41;;;;;;;8.30;3.65;;;;;;;1.60;100.00;99404.53;6225407;28;20630;-85
2023/01/19 13:35:53;;;;;;;9.07;4.07;;;;;;;1.67;100.00;99405.81;6223571;28;20550;-85
2023/01/19 13:38:58;;;;;;;8.00;4.25;;;;;;;1.69;100.00;99401.41;6225867;28;20092;-85
2023/01/19 13:42:04;;;;;;;9.02;4.90;;;;;;;1.73;100.00;99419.00;6224045;28;20050;-85
2023/01/19 13:45:10;;;;;;;7.85;4.50;;;;;;;1.82;100.00;99415.06;6256392;28;20056;-85
2023/01/19 13:48:16;;;;;;;9.00;4.00;;;;;;;1.90;100.00;99414.59;6307286;28;20032;-85
2023/01/19 13:51:19;;;;;;;9.23;4.45;;;;;;;1.93;100.00;99412.69;6297949;28;20040;-85
2023/01/19 13:54:24;;;;;;;9.02;4.15;;;;;;;1.97;100.00;99417.63;6311364;28;20320;-85
2023/01/19 13:57:26;;;;;;;11.98;4.97;;;;;;;2.00;100.00;99423.34;6309034;28;20036;-85
2023/01/19 14:00:29;;;;;;;10.70;4.35;;;;;;;2.00;100.00;99428.44;6311115;28;20046;-86
2023/01/19 14:03:31;;;;;;;11.60;4.25;;;;;;;1.93;100.00;99433.09;6312145;28;20426;-85
2023/01/19 14:06:35;;;;;;;6.57;4.15;;;;;;;1.83;100.00;99432.00;6307435;28;20040;-86
2023/01/19 14:09:38;;;;;;;14.02;4.13;;;;;;;1.83;100.00;99433.75;6307889;28;20043;-86
2023/01/19 14:12:40;;;;;;;9.23;4.20;;;;;;;1.74;100.00;99445.34;6305174;28;20123;-87
2023/01/19 14:16:05;;;;;;;10.57;4.05;;;;;;;1.71;100.00;99442.94;6309415;28;20040;-86
2023/01/19 14:19:07;;;;;;;10.75;3.75;;;;;;;1.67;100.00;99441.50;6306882;28;20583;-89
2023/01/19 14:22:09;;;;;;;10.02;4.40;;;;;;;1.67;100.00;99451.72;6308954;28;20365;-86
2023/01/19 14:25:34;;;;;;;12.32;5.60;;;;;;;1.66;100.00;99455.97;6300880;28;20035;-86
2023/01/19 14:28:43;;;;;;;11.88;4.43;;;;;;;1.63;100.00;99457.91;6293491;28;20126;-86
2023/01/19 14:31:48;;;;;;;8.82;4.78;;;;;;;1.54;100.00;99464.38;6297542;28;20036;-86